sensor_id;sensor_type;location;lat;lon;timestamp;temperature;humidity
21267;DHT22;10791;53.108;18.326;2023-08-12T00:04:58;12.20;99.90
21267;DHT22;10791;53.108;18.326;2023-08-12T00:10:02;12.20;99.90
21267;DHT22;10791;53.108;18.326;2023-08-12T00:15:08;12.10;99.90
21267;DHT22;10791;53.108;18.326;2023-08-12T00:20:13;12.00;99.90
21267;DHT22;10791;53.108;18.326;2023-08-12T00:25:16;11.90;99.90
21267;DHT22;10791;53.108;18.326;2023-08-12T00:30:19;11.90;99.90
21267;DHT22;10791;53.108;18.326;2023-08-12T00:35:23;11.80;99.90
21267;DHT22;10791;53.108;18.326;2023-08-12T00:40:26;11.80;99.90
21267;DHT22;10791;53.108;18.326;2023-08-12T00:45:30;11.70;99.90
21267;DHT22;10791;53.108;18.326;2023-08-12T00:50:33;11.70;99.90
21267;DHT22;10791;53.108;18.326;2023-08-12T00:55:36;11.80;99.90
21267;DHT22;10791;53.108;18.326;2023-08-12T01:00:40;11.70;99.90
21267;DHT22;10791;53.108;18.326;2023-08-12T01:05:43;11.70;99.90
21267;DHT22;10791;53.108;18.326;2023-08-12T01:10:54;11.60;99.90
21267;DHT22;10791;53.108;18.326;2023-08-12T01:16:04;11.60;99.90
21267;DHT22;10791;53.108;18.326;2023-08-12T01:21:10;11.60;99.90
21267;DHT22;10791;53.108;18.326;2023-08-12T01:26:15;11.50;99.90
21267;DHT22;10791;53.108;18.326;2023-08-12T01:31:26;11.50;99.90
21267;DHT22;10791;53.108;18.326;2023-08-12T01:36:35;11.40;99.90
21267;DHT22;10791;53.108;18.326;2023-08-12T01:41:39;11.30;99.90
21267;DHT22;10791;53.108;18.326;2023-08-12T01:46:44;11.20;99.90
21267;DHT22;10791;53.108;18.326;2023-08-12T01:51:47;11.10;99.90
21267;DHT22;10791;53.108;18.326;2023-08-12T01:56:50;11.10;99.90
21267;DHT22;10791;53.108;18.326;2023-08-12T02:01:53;11.10;99.90
21267;DHT22;10791;53.108;18.326;2023-08-12T02:06:57;11.00;99.90
21267;DHT22;10791;53.108;18.326;2023-08-12T02:12:00;11.00;99.90
21267;DHT22;10791;53.108;18.326;2023-08-12T02:17:03;11.00;99.90
21267;DHT22;10791;53.108;18.326;2023-08-12T02:22:09;10.90;99.90
21267;DHT22;10791;53.108;18.326;2023-08-12T02:27:13;10.90;99.90
21267;DHT22;10791;53.108;18.326;2023-08-12T02:32:16;10.80;99.90
21267;DHT22;10791;53.108;18.326;2023-08-12T02:37:19;10.80;99.90
21267;DHT22;10791;53.108;18.326;2023-08-12T02:42:22;10.80;99.90
21267;DHT22;10791;53.108;18.326;2023-08-12T02:47:26;10.80;99.90
21267;DHT22;10791;53.108;18.326;2023-08-12T02:52:29;10.80;99.90
21267;DHT22;10791;53.108;18.326;2023-08-12T02:57:33;10.80;99.90
21267;DHT22;10791;53.108;18.326;2023-08-12T03:02:36;10.80;99.90
21267;DHT22;10791;53.108;18.326;2023-08-12T03:07:39;10.80;99.90
21267;DHT22;10791;53.108;18.326;2023-08-12T03:12:43;10.80;99.90
21267;DHT22;10791;53.108;18.326;2023-08-12T03:17:46;10.80;99.90
21267;DHT22;10791;53.108;18.326;2023-08-12T03:22:49;10.80;99.90
21267;DHT22;10791;53.108;18.326;2023-08-12T03:27:52;10.80;99.90
21267;DHT22;10791;53.108;18.326;2023-08-12T03:32:56;10.90;99.90
21267;DHT22;10791;53.108;18.326;2023-08-12T03:37:59;10.90;99.90
21267;DHT22;10791;53.108;18.326;2023-08-12T03:43:03;10.90;99.90
21267;DHT22;10791;53.108;18.326;2023-08-12T03:48:06;10.90;99.90
21267;DHT22;10791;53.108;18.326;2023-08-12T03:53:09;10.90;99.90
21267;DHT22;10791;53.108;18.326;2023-08-12T03:58:13;11.00;99.90
21267;DHT22;10791;53.108;18.326;2023-08-12T04:03:16;11.00;99.90
21267;DHT22;10791;53.108;18.326;2023-08-12T04:08:20;11.20;99.90
21267;DHT22;10791;53.108;18.326;2023-08-12T04:13:24;11.30;99.90
21267;DHT22;10791;53.108;18.326;2023-08-12T04:18:27;11.40;99.90
21267;DHT22;10791;53.108;18.326;2023-08-12T04:23:30;11.60;99.90
21267;DHT22;10791;53.108;18.326;2023-08-12T04:28:33;11.70;99.90
21267;DHT22;10791;53.108;18.326;2023-08-12T04:33:36;11.90;99.90
21267;DHT22;10791;53.108;18.326;2023-08-12T04:38:39;12.10;99.90
21267;DHT22;10791;53.108;18.326;2023-08-12T04:43:42;12.20;99.90
21267;DHT22;10791;53.108;18.326;2023-08-12T04:48:46;12.30;99.90
21267;DHT22;10791;53.108;18.326;2023-08-12T04:53:49;12.50;99.90
21267;DHT22;10791;53.108;18.326;2023-08-12T04:58:52;12.70;99.90
21267;DHT22;10791;53.108;18.326;2023-08-12T05:03:55;12.80;99.90
21267;DHT22;10791;53.108;18.326;2023-08-12T05:08:58;12.90;99.90
21267;DHT22;10791;53.108;18.326;2023-08-12T05:14:01;13.10;99.90
21267;DHT22;10791;53.108;18.326;2023-08-12T05:19:04;13.30;99.90
21267;DHT22;10791;53.108;18.326;2023-08-12T05:24:08;13.50;99.90
21267;DHT22;10791;53.108;18.326;2023-08-12T05:29:11;13.70;99.90
21267;DHT22;10791;53.108;18.326;2023-08-12T05:34:14;13.80;99.90
21267;DHT22;10791;53.108;18.326;2023-08-12T05:39:17;13.80;99.90
21267;DHT22;10791;53.108;18.326;2023-08-12T05:44:21;14.00;99.90
21267;DHT22;10791;53.108;18.326;2023-08-12T05:49:24;14.20;99.90
21267;DHT22;10791;53.108;18.326;2023-08-12T05:54:27;14.30;99.90
21267;DHT22;10791;53.108;18.326;2023-08-12T05:59:30;14.50;99.90
21267;DHT22;10791;53.108;18.326;2023-08-12T06:04:33;14.80;99.90
21267;DHT22;10791;53.108;18.326;2023-08-12T06:09:37;15.10;99.90
21267;DHT22;10791;53.108;18.326;2023-08-12T06:14:40;15.50;99.90
21267;DHT22;10791;53.108;18.326;2023-08-12T06:19:43;15.80;99.90
21267;DHT22;10791;53.108;18.326;2023-08-12T06:24:47;16.10;99.90
21267;DHT22;10791;53.108;18.326;2023-08-12T06:29:50;16.40;99.90
21267;DHT22;10791;53.108;18.326;2023-08-12T06:34:53;16.80;99.90
21267;DHT22;10791;53.108;18.326;2023-08-12T06:39:56;17.30;99.90
21267;DHT22;10791;53.108;18.326;2023-08-12T06:45:00;17.80;99.90
21267;DHT22;10791;53.108;18.326;2023-08-12T06:50:03;18.30;99.90
21267;DHT22;10791;53.108;18.326;2023-08-12T06:55:07;18.80;99.90
21267;DHT22;10791;53.108;18.326;2023-08-12T07:00:10;19.30;99.90
21267;DHT22;10791;53.108;18.326;2023-08-12T07:05:14;19.70;99.90
21267;DHT22;10791;53.108;18.326;2023-08-12T07:10:17;20.00;99.90
21267;DHT22;10791;53.108;18.326;2023-08-12T07:15:24;20.20;99.90
21267;DHT22;10791;53.108;18.326;2023-08-12T07:20:27;20.70;99.90
21267;DHT22;10791;53.108;18.326;2023-08-12T07:25:31;21.10;99.90
21267;DHT22;10791;53.108;18.326;2023-08-12T07:30:35;21.60;99.90
21267;DHT22;10791;53.108;18.326;2023-08-12T07:35:39;21.90;99.90
21267;DHT22;10791;53.108;18.326;2023-08-12T07:40:43;22.20;99.90
21267;DHT22;10791;53.108;18.326;2023-08-12T07:45:51;22.50;99.90
21267;DHT22;10791;53.108;18.326;2023-08-12T07:51:10;22.90;94.70
21267;DHT22;10791;53.108;18.326;2023-08-12T07:56:14;23.00;93.40
21267;DHT22;10791;53.108;18.326;2023-08-12T08:01:17;23.20;92.50
21267;DHT22;10791;53.108;18.326;2023-08-12T08:06:22;23.40;90.20
21267;DHT22;10791;53.108;18.326;2023-08-12T08:11:26;23.80;87.30
21267;DHT22;10791;53.108;18.326;2023-08-12T08:16:30;24.00;86.20
21267;DHT22;10791;53.108;18.326;2023-08-12T08:21:34;24.10;80.90
21267;DHT22;10791;53.108;18.326;2023-08-12T08:26:37;24.10;77.90
21267;DHT22;10791;53.108;18.326;2023-08-12T08:31:40;24.20;80.20
21267;DHT22;10791;53.108;18.326;2023-08-12T08:36:43;24.40;78.80
21267;DHT22;10791;53.108;18.326;2023-08-12T08:41:48;24.60;78.20
21267;DHT22;10791;53.108;18.326;2023-08-12T08:46:52;24.80;77.50
21267;DHT22;10791;53.108;18.326;2023-08-12T08:51:59;25.00;79.50
21267;DHT22;10791;53.108;18.326;2023-08-12T08:57:03;25.30;75.80
21267;DHT22;10791;53.108;18.326;2023-08-12T09:02:17;25.40;74.40
21267;DHT22;10791;53.108;18.326;2023-08-12T09:07:21;25.60;73.10
21267;DHT22;10791;53.108;18.326;2023-08-12T09:12:25;25.60;72.30
21267;DHT22;10791;53.108;18.326;2023-08-12T09:17:29;25.80;71.10
21267;DHT22;10791;53.108;18.326;2023-08-12T09:22:32;25.90;73.20
21267;DHT22;10791;53.108;18.326;2023-08-12T09:27:36;26.00;70.80
21267;DHT22;10791;53.108;18.326;2023-08-12T09:32:41;26.20;70.00
21267;DHT22;10791;53.108;18.326;2023-08-12T09:37:44;26.40;70.40
21267;DHT22;10791;53.108;18.326;2023-08-12T09:42:47;26.60;73.40
21267;DHT22;10791;53.108;18.326;2023-08-12T09:47:54;26.70;69.40
21267;DHT22;10791;53.108;18.326;2023-08-12T09:52:58;26.70;69.70
21267;DHT22;10791;53.108;18.326;2023-08-12T09:58:02;26.80;67.40
21267;DHT22;10791;53.108;18.326;2023-08-12T10:03:10;26.80;67.70
21267;DHT22;10791;53.108;18.326;2023-08-12T10:08:18;27.10;68.70
21267;DHT22;10791;53.108;18.326;2023-08-12T10:13:22;27.20;66.50
21267;DHT22;10791;53.108;18.326;2023-08-12T10:18:26;27.20;64.80
21267;DHT22;10791;53.108;18.326;2023-08-12T10:23:32;27.30;68.80
21267;DHT22;10791;53.108;18.326;2023-08-12T10:28:35;27.60;66.10
21267;DHT22;10791;53.108;18.326;2023-08-12T10:33:41;27.70;63.60
21267;DHT22;10791;53.108;18.326;2023-08-12T10:38:44;27.70;64.40
21267;DHT22;10791;53.108;18.326;2023-08-12T10:43:54;27.90;63.30
21267;DHT22;10791;53.108;18.326;2023-08-12T10:49:08;28.00;63.30
21267;DHT22;10791;53.108;18.326;2023-08-12T10:54:15;28.20;61.50
21267;DHT22;10791;53.108;18.326;2023-08-12T10:59:53;28.30;62.20
21267;DHT22;10791;53.108;18.326;2023-08-12T11:05:01;28.40;61.10
21267;DHT22;10791;53.108;18.326;2023-08-12T11:10:16;28.50;60.70
21267;DHT22;10791;53.108;18.326;2023-08-12T11:20:37;28.60;63.80
21267;DHT22;10791;53.108;18.326;2023-08-12T11:25:42;28.80;62.30
21267;DHT22;10791;53.108;18.326;2023-08-12T11:30:47;28.90;61.70
21267;DHT22;10791;53.108;18.326;2023-08-12T11:35:50;29.00;59.50
21267;DHT22;10791;53.108;18.326;2023-08-12T11:40:53;29.10;60.80
21267;DHT22;10791;53.108;18.326;2023-08-12T11:45:57;29.30;58.00
21267;DHT22;10791;53.108;18.326;2023-08-12T11:51:00;29.50;60.70
21267;DHT22;10791;53.108;18.326;2023-08-12T11:56:03;29.40;57.90
21267;DHT22;10791;53.108;18.326;2023-08-12T12:01:06;29.40;57.50
21267;DHT22;10791;53.108;18.326;2023-08-12T12:06:10;29.10;56.80
21267;DHT22;10791;53.108;18.326;2023-08-12T12:11:14;29.20;58.40
21267;DHT22;10791;53.108;18.326;2023-08-12T12:16:17;29.50;58.30
21267;DHT22;10791;53.108;18.326;2023-08-12T12:21:20;29.70;58.30
21267;DHT22;10791;53.108;18.326;2023-08-12T12:26:26;30.00;55.90
21267;DHT22;10791;53.108;18.326;2023-08-12T12:31:40;30.00;56.20
21267;DHT22;10791;53.108;18.326;2023-08-12T12:36:44;29.80;56.80
21267;DHT22;10791;53.108;18.326;2023-08-12T12:41:47;29.80;54.80
21267;DHT22;10791;53.108;18.326;2023-08-12T12:46:50;29.70;55.20
21267;DHT22;10791;53.108;18.326;2023-08-12T12:51:53;29.70;55.20
21267;DHT22;10791;53.108;18.326;2023-08-12T12:56:56;29.80;56.10
21267;DHT22;10791;53.108;18.326;2023-08-12T13:01:59;30.10;56.80
21267;DHT22;10791;53.108;18.326;2023-08-12T13:07:02;30.20;56.10
21267;DHT22;10791;53.108;18.326;2023-08-12T13:12:06;30.30;57.10
21267;DHT22;10791;53.108;18.326;2023-08-12T13:17:09;30.40;56.40
21267;DHT22;10791;53.108;18.326;2023-08-12T13:22:12;30.80;58.30
21267;DHT22;10791;53.108;18.326;2023-08-12T13:27:15;31.20;56.90
21267;DHT22;10791;53.108;18.326;2023-08-12T13:32:20;31.10;54.10
21267;DHT22;10791;53.108;18.326;2023-08-12T13:37:23;31.20;56.20
21267;DHT22;10791;53.108;18.326;2023-08-12T13:42:26;31.40;52.60
21267;DHT22;10791;53.108;18.326;2023-08-12T13:47:29;31.80;56.20
21267;DHT22;10791;53.108;18.326;2023-08-12T13:52:32;31.90;53.90
21267;DHT22;10791;53.108;18.326;2023-08-12T13:57:36;31.50;52.70
21267;DHT22;10791;53.108;18.326;2023-08-12T14:02:39;31.50;55.40
21267;DHT22;10791;53.108;18.326;2023-08-12T14:07:43;31.60;54.60
21267;DHT22;10791;53.108;18.326;2023-08-12T14:12:46;31.90;52.40
21267;DHT22;10791;53.108;18.326;2023-08-12T14:17:54;32.10;53.80
21267;DHT22;10791;53.108;18.326;2023-08-12T14:22:57;32.20;51.30
21267;DHT22;10791;53.108;18.326;2023-08-12T14:28:00;32.30;51.80
21267;DHT22;10791;53.108;18.326;2023-08-12T14:33:04;32.50;52.50
21267;DHT22;10791;53.108;18.326;2023-08-12T14:38:08;32.80;52.40
21267;DHT22;10791;53.108;18.326;2023-08-12T14:43:12;33.10;51.60
21267;DHT22;10791;53.108;18.326;2023-08-12T14:48:15;33.40;50.20
21267;DHT22;10791;53.108;18.326;2023-08-12T14:53:19;33.80;51.00
21267;DHT22;10791;53.108;18.326;2023-08-12T14:58:22;33.90;48.50
21267;DHT22;10791;53.108;18.326;2023-08-12T15:03:25;33.80;49.50
21267;DHT22;10791;53.108;18.326;2023-08-12T15:08:29;33.30;49.00
21267;DHT22;10791;53.108;18.326;2023-08-12T15:13:32;33.50;48.90
21267;DHT22;10791;53.108;18.326;2023-08-12T15:18:35;33.80;50.40
21267;DHT22;10791;53.108;18.326;2023-08-12T15:23:38;34.10;48.60
21267;DHT22;10791;53.108;18.326;2023-08-12T15:28:41;34.20;48.80
21267;DHT22;10791;53.108;18.326;2023-08-12T15:33:44;33.50;49.80
21267;DHT22;10791;53.108;18.326;2023-08-12T15:38:48;33.00;49.70
21267;DHT22;10791;53.108;18.326;2023-08-12T15:43:51;32.00;50.40
21267;DHT22;10791;53.108;18.326;2023-08-12T15:48:55;31.00;51.80
21267;DHT22;10791;53.108;18.326;2023-08-12T15:53:58;30.40;53.60
21267;DHT22;10791;53.108;18.326;2023-08-12T15:59:02;29.90;55.50
21267;DHT22;10791;53.108;18.326;2023-08-12T16:04:07;29.60;56.50
21267;DHT22;10791;53.108;18.326;2023-08-12T16:09:11;29.30;58.00
21267;DHT22;10791;53.108;18.326;2023-08-12T16:14:20;29.00;58.70
21267;DHT22;10791;53.108;18.326;2023-08-12T16:19:23;28.80;59.20
21267;DHT22;10791;53.108;18.326;2023-08-12T16:24:27;28.50;59.40
21267;DHT22;10791;53.108;18.326;2023-08-12T16:29:30;28.40;61.90
21267;DHT22;10791;53.108;18.326;2023-08-12T16:34:33;28.20;61.20
21267;DHT22;10791;53.108;18.326;2023-08-12T16:39:36;28.00;60.90
21267;DHT22;10791;53.108;18.326;2023-08-12T16:44:39;27.90;61.50
21267;DHT22;10791;53.108;18.326;2023-08-12T16:49:43;27.80;62.30
21267;DHT22;10791;53.108;18.326;2023-08-12T16:54:46;27.80;63.60
21267;DHT22;10791;53.108;18.326;2023-08-12T16:59:49;27.70;63.90
21267;DHT22;10791;53.108;18.326;2023-08-12T17:04:52;27.60;64.40
21267;DHT22;10791;53.108;18.326;2023-08-12T17:09:56;27.60;64.70
21267;DHT22;10791;53.108;18.326;2023-08-12T17:15:00;27.40;64.40
21267;DHT22;10791;53.108;18.326;2023-08-12T17:20:04;27.40;65.60
21267;DHT22;10791;53.108;18.326;2023-08-12T17:25:08;27.30;65.00
21267;DHT22;10791;53.108;18.326;2023-08-12T17:30:11;27.20;65.90
21267;DHT22;10791;53.108;18.326;2023-08-12T17:35:15;27.20;65.50
21267;DHT22;10791;53.108;18.326;2023-08-12T17:40:18;27.10;71.40
21267;DHT22;10791;53.108;18.326;2023-08-12T17:45:26;26.80;74.60
21267;DHT22;10791;53.108;18.326;2023-08-12T17:50:31;26.50;77.90
21267;DHT22;10791;53.108;18.326;2023-08-12T17:55:34;26.30;82.20
21267;DHT22;10791;53.108;18.326;2023-08-12T18:00:40;26.10;87.30
21267;DHT22;10791;53.108;18.326;2023-08-12T18:05:43;25.90;85.20
21267;DHT22;10791;53.108;18.326;2023-08-12T18:10:47;25.60;87.60
21267;DHT22;10791;53.108;18.326;2023-08-12T18:15:50;25.40;90.30
21267;DHT22;10791;53.108;18.326;2023-08-12T18:20:54;25.10;92.00
21267;DHT22;10791;53.108;18.326;2023-08-12T18:25:57;25.00;93.80
21267;DHT22;10791;53.108;18.326;2023-08-12T18:31:01;24.80;95.70
21267;DHT22;10791;53.108;18.326;2023-08-12T18:36:04;24.70;97.00
21267;DHT22;10791;53.108;18.326;2023-08-12T18:41:08;24.60;98.50
21267;DHT22;10791;53.108;18.326;2023-08-12T18:46:11;24.40;98.90
21267;DHT22;10791;53.108;18.326;2023-08-12T18:51:15;24.10;99.90
21267;DHT22;10791;53.108;18.326;2023-08-12T18:56:19;24.00;99.90
21267;DHT22;10791;53.108;18.326;2023-08-12T19:01:23;23.80;99.90
21267;DHT22;10791;53.108;18.326;2023-08-12T19:06:26;23.40;99.90
21267;DHT22;10791;53.108;18.326;2023-08-12T19:11:29;23.20;99.90
21267;DHT22;10791;53.108;18.326;2023-08-12T19:16:33;23.10;99.90
21267;DHT22;10791;53.108;18.326;2023-08-12T19:21:37;23.10;99.90
21267;DHT22;10791;53.108;18.326;2023-08-12T19:26:40;23.10;99.90
21267;DHT22;10791;53.108;18.326;2023-08-12T19:31:44;23.00;99.90
21267;DHT22;10791;53.108;18.326;2023-08-12T19:36:47;23.00;99.90
21267;DHT22;10791;53.108;18.326;2023-08-12T19:41:51;22.80;99.90
21267;DHT22;10791;53.108;18.326;2023-08-12T19:46:54;22.70;99.90
21267;DHT22;10791;53.108;18.326;2023-08-12T19:51:58;22.60;99.90
21267;DHT22;10791;53.108;18.326;2023-08-12T19:57:02;22.50;99.90
21267;DHT22;10791;53.108;18.326;2023-08-12T20:02:06;22.40;99.90
21267;DHT22;10791;53.108;18.326;2023-08-12T20:07:10;22.40;99.70
21267;DHT22;10791;53.108;18.326;2023-08-12T20:12:14;22.50;97.10
21267;DHT22;10791;53.108;18.326;2023-08-12T20:17:18;22.50;94.70
21267;DHT22;10791;53.108;18.326;2023-08-12T20:22:25;22.60;93.60
21267;DHT22;10791;53.108;18.326;2023-08-12T20:27:29;22.80;92.40
21267;DHT22;10791;53.108;18.326;2023-08-12T20:32:33;22.80;91.70
21267;DHT22;10791;53.108;18.326;2023-08-12T20:37:38;22.90;91.60
21267;DHT22;10791;53.108;18.326;2023-08-12T20:42:42;22.90;91.40
21267;DHT22;10791;53.108;18.326;2023-08-12T20:47:45;22.80;91.30
21267;DHT22;10791;53.108;18.326;2023-08-12T20:52:50;22.80;91.10
21267;DHT22;10791;53.108;18.326;2023-08-12T20:57:55;22.80;90.90
21267;DHT22;10791;53.108;18.326;2023-08-12T21:02:58;22.80;91.00
21267;DHT22;10791;53.108;18.326;2023-08-12T21:08:04;22.80;90.70
21267;DHT22;10791;53.108;18.326;2023-08-12T21:13:07;22.80;90.90
21267;DHT22;10791;53.108;18.326;2023-08-12T21:18:11;22.80;91.00
21267;DHT22;10791;53.108;18.326;2023-08-12T21:23:14;22.70;90.80
21267;DHT22;10791;53.108;18.326;2023-08-12T21:28:18;22.70;91.10
21267;DHT22;10791;53.108;18.326;2023-08-12T21:33:21;22.60;90.40
21267;DHT22;10791;53.108;18.326;2023-08-12T21:38:25;22.70;90.20
21267;DHT22;10791;53.108;18.326;2023-08-12T21:43:32;22.80;90.20
21267;DHT22;10791;53.108;18.326;2023-08-12T21:48:36;22.80;90.30
21267;DHT22;10791;53.108;18.326;2023-08-12T21:53:40;22.80;90.10
21267;DHT22;10791;53.108;18.326;2023-08-12T21:58:46;22.80;90.20
21267;DHT22;10791;53.108;18.326;2023-08-12T22:03:50;22.80;90.00
21267;DHT22;10791;53.108;18.326;2023-08-12T22:08:53;22.70;90.30
21267;DHT22;10791;53.108;18.326;2023-08-12T22:13:56;22.70;90.20
21267;DHT22;10791;53.108;18.326;2023-08-12T22:19:00;22.80;90.00
21267;DHT22;10791;53.108;18.326;2023-08-12T22:24:03;22.70;90.00
21267;DHT22;10791;53.108;18.326;2023-08-12T22:29:06;22.70;90.10
21267;DHT22;10791;53.108;18.326;2023-08-12T22:34:10;22.60;90.20
21267;DHT22;10791;53.108;18.326;2023-08-12T22:39:13;22.60;90.60
21267;DHT22;10791;53.108;18.326;2023-08-12T22:44:16;22.50;91.10
21267;DHT22;10791;53.108;18.326;2023-08-12T22:49:20;22.40;91.80
21267;DHT22;10791;53.108;18.326;2023-08-12T22:54:23;22.30;93.40
21267;DHT22;10791;53.108;18.326;2023-08-12T22:59:26;22.10;94.30
21267;DHT22;10791;53.108;18.326;2023-08-12T23:04:29;21.90;95.10
21267;DHT22;10791;53.108;18.326;2023-08-12T23:09:32;21.70;97.20
21267;DHT22;10791;53.108;18.326;2023-08-12T23:14:36;21.40;99.90
21267;DHT22;10791;53.108;18.326;2023-08-12T23:19:39;21.20;99.90
21267;DHT22;10791;53.108;18.326;2023-08-12T23:24:42;21.10;99.90
21267;DHT22;10791;53.108;18.326;2023-08-12T23:29:45;20.90;99.90
21267;DHT22;10791;53.108;18.326;2023-08-12T23:34:49;20.80;99.90
21267;DHT22;10791;53.108;18.326;2023-08-12T23:39:52;20.70;99.90
21267;DHT22;10791;53.108;18.326;2023-08-12T23:44:55;20.60;99.90
21267;DHT22;10791;53.108;18.326;2023-08-12T23:49:59;20.60;99.90
21267;DHT22;10791;53.108;18.326;2023-08-12T23:55:02;20.60;99.90
